createdAt,value
2017-11-23T00:01:05.707Z,64.80
2017-11-23T00:03:39.316Z,64.70
2017-11-23T00:06:12.775Z,64.70
2017-11-23T00:08:47.327Z,64.50
2017-11-23T00:11:20.831Z,64.50
2017-11-23T00:13:54.593Z,63.90
2017-11-23T00:16:28.191Z,64.10
2017-11-23T00:19:01.844Z,64.10
2017-11-23T00:21:35.452Z,64.10
2017-11-23T00:24:08.931Z,63.90
2017-11-23T00:26:42.436Z,63.70
2017-11-23T00:29:16.030Z,63.50
2017-11-23T00:31:49.590Z,63.90
2017-11-23T00:34:23.231Z,63.80
2017-11-23T00:36:56.840Z,63.70
2017-11-23T00:39:30.437Z,63.60
2017-11-23T00:42:04.135Z,63.40
2017-11-23T00:44:37.735Z,63.70
2017-11-23T00:47:11.306Z,63.50
2017-11-23T00:49:45.503Z,63.20
2017-11-23T00:52:19.256Z,63.60
2017-11-23T00:54:52.720Z,63.70
2017-11-23T00:57:26.467Z,64.10
2017-11-23T00:59:59.955Z,63.80
2017-11-23T01:02:33.463Z,64.30
2017-11-23T01:05:07.069Z,64.40
2017-11-23T01:07:40.863Z,64.60
2017-11-23T01:10:14.419Z,64.70
2017-11-23T01:12:48.062Z,64.50
2017-11-23T01:15:21.672Z,64.20
2017-11-23T01:17:55.375Z,64.30
2017-11-23T01:20:28.967Z,64.10
2017-11-23T01:23:02.689Z,63.90
2017-11-23T01:25:36.867Z,63.60
2017-11-23T01:28:10.487Z,63.60
2017-11-23T01:30:44.198Z,64.00
2017-11-23T01:33:18.098Z,64.10
2017-11-23T01:35:51.699Z,63.20
2017-11-23T01:38:25.303Z,63.10
2017-11-23T01:40:59.011Z,63.00
2017-11-23T01:43:32.678Z,63.40
2017-11-23T01:46:06.309Z,63.10
2017-11-23T01:48:39.814Z,62.80
2017-11-23T01:51:13.406Z,62.60
2017-11-23T01:53:47.062Z,62.70
2017-11-23T01:56:20.860Z,62.20
2017-11-23T01:58:54.519Z,62.70
2017-11-23T02:01:29.038Z,62.20
2017-11-23T02:04:02.499Z,62.30
2017-11-23T02:06:36.238Z,62.40
2017-11-23T02:09:09.807Z,62.30
2017-11-23T02:11:43.448Z,62.30
2017-11-23T02:14:17.926Z,62.00
2017-11-23T02:16:51.635Z,62.00
2017-11-23T02:19:25.147Z,62.50
2017-11-23T02:21:58.866Z,62.30
2017-11-23T02:24:32.426Z,62.30
2017-11-23T02:27:06.127Z,62.50
2017-11-23T02:29:39.889Z,62.70
2017-11-23T02:32:13.536Z,62.80
2017-11-23T02:34:47.046Z,62.60
2017-11-23T02:37:20.614Z,62.90
2017-11-23T02:39:54.279Z,63.20
2017-11-23T02:42:27.883Z,63.20
2017-11-23T02:45:01.584Z,63.10
2017-11-23T02:47:35.971Z,63.40
2017-11-23T02:50:09.573Z,63.40
2017-11-23T02:52:43.159Z,63.50
2017-11-23T02:55:16.916Z,63.40
2017-11-23T02:57:50.520Z,63.30
2017-11-23T03:00:24.051Z,63.40
2017-11-23T03:02:57.824Z,63.70
2017-11-23T03:05:31.992Z,64.00
2017-11-23T03:08:05.508Z,63.90
2017-11-23T03:10:39.143Z,63.50
2017-11-23T03:13:12.948Z,63.60
2017-11-23T03:15:46.861Z,63.30
2017-11-23T03:18:20.519Z,63.40
2017-11-23T03:20:54.236Z,63.50
2017-11-23T03:23:28.676Z,63.50
2017-11-23T03:26:02.118Z,63.50
2017-11-23T03:28:35.874Z,63.20
2017-11-23T03:31:09.481Z,63.40
2017-11-23T03:33:43.891Z,63.60
2017-11-23T03:36:17.584Z,63.60
2017-11-23T03:38:51.095Z,63.60
2017-11-23T03:41:24.703Z,63.20
2017-11-23T03:43:58.294Z,63.10
2017-11-23T03:46:31.848Z,63.40
2017-11-23T03:49:06.378Z,63.20
2017-11-23T03:51:39.978Z,63.20
2017-11-23T03:54:14.402Z,63.20
2017-11-23T03:56:48.739Z,63.30
2017-11-23T03:59:23.031Z,63.30
2017-11-23T04:01:56.638Z,63.40
2017-11-23T04:04:30.178Z,63.10
2017-11-23T04:07:03.647Z,63.10
2017-11-23T04:09:37.986Z,63.00
2017-11-23T04:12:11.694Z,63.00
2017-11-23T04:14:45.295Z,63.10
2017-11-23T04:17:18.895Z,63.00
2017-11-23T04:19:52.411Z,63.00
2017-11-23T04:22:25.904Z,62.90
2017-11-23T04:24:59.813Z,63.20
2017-11-23T04:27:34.338Z,63.20
2017-11-23T04:30:07.983Z,63.20
2017-11-23T04:32:41.727Z,63.30
2017-11-23T04:35:15.295Z,63.30
2017-11-23T04:37:48.942Z,63.10
2017-11-23T04:40:22.531Z,62.90
2017-11-23T04:42:56.100Z,63.00
2017-11-23T04:45:29.745Z,63.00
2017-11-23T04:48:03.338Z,63.10
2017-11-23T04:50:36.815Z,62.90
2017-11-23T04:53:10.387Z,62.80
2017-11-23T04:55:44.954Z,63.50
2017-11-23T04:58:18.576Z,62.90
2017-11-23T05:00:52.164Z,62.90
2017-11-23T05:03:25.827Z,62.70
2017-11-23T05:05:59.783Z,62.80
2017-11-23T05:08:33.488Z,62.80
2017-11-23T05:11:07.163Z,63.20
2017-11-23T05:13:40.990Z,62.90
2017-11-23T05:16:14.588Z,63.00
2017-11-23T05:18:48.193Z,62.80
2017-11-23T05:21:21.725Z,62.70
2017-11-23T05:23:56.620Z,62.60
2017-11-23T05:26:30.267Z,62.60
2017-11-23T05:29:03.859Z,62.40
2017-11-23T05:31:37.515Z,62.20
2017-11-23T05:34:11.014Z,62.90
2017-11-23T05:36:44.574Z,62.10
2017-11-23T05:39:18.170Z,62.10
2017-11-23T05:41:52.125Z,61.90
2017-11-23T05:44:25.745Z,61.80
2017-11-23T05:46:59.418Z,61.80
2017-11-23T05:49:33.083Z,61.40
2017-11-23T05:52:06.735Z,61.50
2017-11-23T05:54:40.334Z,61.50
2017-11-23T05:57:14.106Z,61.20
2017-11-23T05:59:47.748Z,60.90
2017-11-23T06:02:21.219Z,61.00
2017-11-23T06:04:54.848Z,60.70
2017-11-23T06:07:28.452Z,60.50
2017-11-23T06:10:02.755Z,60.20
2017-11-23T06:12:36.775Z,60.20
2017-11-23T06:15:10.470Z,60.10
2017-11-23T06:17:44.034Z,59.80
2017-11-23T06:20:17.629Z,60.20
2017-11-23T06:22:52.159Z,60.40
2017-11-23T06:25:25.794Z,59.80
2017-11-23T06:27:59.384Z,59.80
2017-11-23T06:30:32.891Z,59.80
2017-11-23T06:33:07.295Z,59.80
2017-11-23T06:35:40.863Z,59.80
2017-11-23T06:38:14.519Z,59.90
2017-11-23T06:40:47.952Z,59.90
2017-11-23T06:43:21.612Z,60.10
2017-11-23T06:45:55.382Z,59.90
2017-11-23T06:48:28.981Z,59.60
2017-11-23T06:51:02.522Z,59.60
2017-11-23T06:53:35.992Z,59.70
2017-11-23T06:56:10.287Z,60.00
2017-11-23T06:58:43.939Z,60.00
2017-11-23T07:01:17.854Z,59.60
2017-11-23T07:03:52.267Z,59.70
2017-11-23T07:06:25.764Z,59.70
2017-11-23T07:08:59.463Z,59.60
2017-11-23T07:11:33.125Z,59.30
2017-11-23T07:14:06.620Z,59.20
2017-11-23T07:16:40.085Z,59.30
2017-11-23T07:19:13.667Z,59.20
2017-11-23T07:21:48.707Z,59.80
2017-11-23T07:24:22.204Z,59.20
2017-11-23T07:26:55.799Z,59.20
2017-11-23T07:29:29.502Z,59.10
2017-11-23T07:32:03.102Z,59.10
2017-11-23T07:34:36.707Z,59.30
2017-11-23T07:37:10.408Z,59.40
2017-11-23T07:39:44.117Z,59.20
2017-11-23T07:42:18.436Z,59.60
2017-11-23T07:44:52.131Z,59.30
2017-11-23T07:47:26.551Z,58.90
2017-11-23T07:50:00.110Z,59.00
2017-11-23T07:52:34.584Z,59.00
2017-11-23T07:55:08.051Z,59.00
2017-11-23T07:57:41.588Z,59.20
2017-11-23T08:00:15.320Z,59.00
2017-11-23T08:02:48.844Z,59.00
2017-11-23T08:05:22.327Z,58.90
2017-11-23T08:07:55.987Z,58.70
2017-11-23T08:10:29.779Z,59.00
2017-11-23T08:13:03.388Z,59.50
2017-11-23T08:15:36.983Z,58.90
2017-11-23T08:18:11.487Z,59.10
2017-11-23T08:20:46.243Z,59.00
2017-11-23T08:23:19.840Z,59.10
2017-11-23T08:25:53.431Z,58.80
2017-11-23T08:28:27.044Z,58.10
2017-11-23T08:31:00.621Z,58.10
2017-11-23T08:33:34.244Z,58.90
2017-11-23T08:36:07.834Z,58.10
2017-11-23T08:38:41.448Z,58.20
2017-11-23T08:41:14.927Z,58.00
2017-11-23T08:43:48.503Z,58.40
2017-11-23T08:46:22.338Z,58.10
2017-11-23T08:48:55.884Z,58.00
2017-11-23T08:51:30.236Z,58.20
2017-11-23T08:54:03.869Z,58.10
2017-11-23T08:56:37.563Z,58.00
2017-11-23T08:59:11.171Z,58.00
2017-11-23T09:01:46.811Z,57.80
2017-11-23T09:04:20.515Z,57.60
2017-11-23T09:06:54.104Z,58.00
2017-11-23T09:09:27.833Z,57.90
2017-11-23T09:12:03.263Z,57.90
2017-11-23T09:14:37.600Z,58.00
2017-11-23T09:17:11.032Z,57.90
2017-11-23T09:19:44.570Z,57.80
2017-11-23T09:22:18.178Z,57.80
2017-11-23T09:24:51.788Z,57.80
2017-11-23T09:27:25.445Z,57.80
2017-11-23T09:29:59.040Z,57.70
2017-11-23T09:32:32.899Z,57.50
2017-11-23T09:35:07.183Z,57.50
2017-11-23T09:37:40.919Z,57.50
2017-11-23T09:40:14.724Z,57.70
2017-11-23T09:42:48.315Z,57.80
2017-11-23T09:45:21.927Z,57.60
2017-11-23T09:47:55.527Z,58.20
2017-11-23T09:50:29.107Z,58.10
2017-11-23T09:53:03.030Z,58.00
2017-11-23T09:55:36.637Z,58.20
2017-11-23T09:58:10.140Z,58.00
2017-11-23T10:00:43.850Z,58.00
2017-11-23T10:03:18.868Z,58.10
2017-11-23T10:05:52.371Z,58.00
2017-11-23T10:08:25.962Z,57.90
2017-11-23T10:10:59.532Z,57.80
2017-11-23T10:13:33.136Z,57.40
2017-11-23T10:16:06.776Z,57.30
2017-11-23T10:18:40.348Z,57.40
2017-11-23T10:21:14.084Z,57.40
2017-11-23T10:23:47.680Z,57.40
2017-11-23T10:26:21.187Z,57.30
2017-11-23T10:28:54.975Z,57.40
2017-11-23T10:31:28.995Z,57.60
2017-11-23T10:34:03.406Z,58.10
2017-11-23T10:36:36.912Z,58.10
2017-11-23T10:39:10.616Z,58.00
2017-11-23T10:41:44.895Z,57.80
2017-11-23T10:44:18.704Z,57.80
2017-11-23T10:46:52.442Z,57.80
2017-11-23T10:49:26.012Z,58.00
2017-11-23T10:52:00.052Z,57.70
2017-11-23T10:54:33.757Z,57.60
2017-11-23T10:57:07.329Z,57.90
2017-11-23T10:59:40.928Z,58.00
2017-11-23T11:02:15.071Z,58.00
2017-11-23T11:04:49.487Z,58.00
2017-11-23T11:07:24.114Z,58.00
2017-11-23T11:09:58.543Z,58.00
2017-11-23T11:12:32.214Z,58.10
2017-11-23T11:15:06.537Z,58.20
2017-11-23T11:17:40.095Z,58.20
2017-11-23T11:20:13.755Z,57.80
2017-11-23T11:22:48.080Z,57.70
2017-11-23T11:25:21.666Z,58.10
2017-11-23T11:27:55.159Z,58.30
2017-11-23T11:30:28.888Z,58.30
2017-11-23T11:33:03.291Z,58.80
2017-11-23T11:35:38.239Z,58.80
2017-11-23T11:38:11.927Z,58.80
2017-11-23T11:40:45.531Z,58.80
2017-11-23T11:43:19.959Z,59.10
2017-11-23T11:45:53.547Z,59.30
2017-11-23T11:48:27.118Z,59.40
2017-11-23T11:51:00.702Z,59.50
2017-11-23T11:53:34.337Z,59.80
2017-11-23T11:56:07.963Z,59.80
2017-11-23T11:58:41.665Z,59.70
2017-11-23T12:01:15.468Z,59.90
2017-11-23T12:03:49.148Z,59.90
2017-11-23T12:06:22.771Z,60.10
2017-11-23T12:08:56.965Z,60.00
2017-11-23T12:11:30.796Z,59.90
2017-11-23T12:14:16.377Z,59.80
2017-11-23T12:20:07.413Z,60.10
2017-11-23T12:23:05.481Z,60.40
2017-11-23T12:25:51.155Z,60.40
2017-11-23T12:28:36.744Z,60.40
2017-11-23T12:31:10.343Z,60.40
2017-11-23T12:33:43.798Z,60.70
2017-11-23T12:36:17.435Z,60.60
2017-11-23T12:38:51.239Z,60.60
2017-11-23T12:41:24.943Z,60.40
2017-11-23T12:43:59.244Z,61.00
2017-11-23T12:46:33.170Z,60.80
2017-11-23T12:49:07.078Z,60.80
2017-11-23T12:51:40.678Z,61.00
2017-11-23T12:54:14.285Z,60.90
2017-11-23T12:56:48.803Z,61.40
2017-11-23T12:59:22.303Z,61.00
2017-11-23T13:01:55.854Z,61.10
2017-11-23T13:04:29.612Z,60.90
2017-11-23T13:07:03.208Z,61.10
2017-11-23T13:09:36.822Z,61.20
2017-11-23T13:12:10.464Z,61.30
2017-11-23T13:14:44.222Z,61.20
2017-11-23T13:17:17.715Z,61.20
2017-11-23T13:19:51.303Z,61.30
2017-11-23T13:22:25.730Z,61.30
2017-11-23T13:25:00.585Z,61.10
2017-11-23T13:27:34.239Z,61.20
2017-11-23T13:30:07.844Z,61.50
2017-11-23T13:32:41.362Z,61.50
2017-11-23T13:35:15.694Z,61.70
2017-11-23T13:37:49.280Z,61.70
2017-11-23T13:40:22.995Z,61.50
2017-11-23T13:42:57.203Z,62.30
2017-11-23T13:45:30.798Z,61.70
2017-11-23T13:48:05.218Z,62.10
2017-11-23T13:50:38.832Z,61.40
2017-11-23T13:53:12.611Z,61.30
2017-11-23T13:55:46.214Z,61.40
2017-11-23T13:58:20.035Z,61.20
2017-11-23T14:00:53.608Z,61.20
2017-11-23T14:03:27.349Z,61.20
2017-11-23T14:06:00.878Z,61.40
2017-11-23T14:08:34.643Z,61.20
2017-11-23T14:11:08.447Z,61.10
2017-11-23T14:13:42.046Z,61.20
2017-11-23T14:16:16.467Z,61.40
2017-11-23T14:18:50.083Z,61.40
2017-11-23T14:21:23.670Z,61.50
2017-11-23T14:23:57.279Z,62.10
2017-11-23T14:26:30.875Z,62.20
2017-11-23T14:29:04.446Z,62.50
2017-11-23T14:31:38.280Z,62.70
2017-11-23T14:34:11.879Z,63.00
2017-11-23T14:36:45.447Z,62.70
2017-11-23T14:39:18.989Z,62.80
2017-11-23T14:41:52.807Z,62.90
2017-11-23T14:44:26.489Z,63.60
2017-11-23T14:47:00.200Z,63.40
2017-11-23T14:49:33.756Z,63.60
2017-11-23T14:52:07.960Z,64.10
2017-11-23T14:54:41.820Z,64.20
2017-11-23T14:57:15.414Z,64.50
2017-11-23T14:59:48.868Z,64.70
2017-11-23T15:02:23.231Z,65.10
2017-11-23T15:04:57.555Z,65.20
2017-11-23T15:07:31.155Z,65.00
2017-11-23T15:10:04.814Z,64.90
2017-11-23T15:12:38.555Z,65.00
2017-11-23T15:15:12.067Z,64.80
2017-11-23T15:17:45.860Z,65.30
2017-11-23T15:20:19.459Z,65.40
2017-11-23T15:22:52.969Z,65.30
2017-11-23T15:25:26.579Z,65.70
2017-11-23T15:28:00.172Z,65.90
2017-11-23T15:30:33.812Z,65.90
2017-11-23T15:33:07.363Z,66.30
2017-11-23T15:35:41.167Z,66.30
2017-11-23T15:38:14.874Z,66.70
2017-11-23T15:40:48.827Z,66.60
2017-11-23T15:43:22.434Z,66.70
2017-11-23T15:45:56.126Z,66.50
2017-11-23T15:48:30.586Z,66.70
2017-11-23T15:51:04.158Z,66.70
2017-11-23T15:53:38.704Z,66.90
2017-11-23T15:56:12.192Z,66.80
2017-11-23T15:58:45.787Z,66.90
2017-11-23T16:01:19.531Z,67.20
2017-11-23T16:03:53.096Z,67.30
2017-11-23T16:06:26.739Z,67.30
2017-11-23T16:09:00.403Z,67.30
2017-11-23T16:11:34.083Z,67.40
2017-11-23T16:14:07.638Z,67.40
2017-11-23T16:16:41.674Z,67.40
2017-11-23T16:19:15.414Z,67.60
2017-11-23T16:21:49.027Z,67.50
2017-11-23T16:24:22.755Z,67.40
2017-11-23T16:26:56.336Z,67.70
2017-11-23T16:29:29.923Z,68.00
2017-11-23T16:32:03.440Z,68.30
2017-11-23T16:34:37.020Z,68.30
2017-11-23T16:37:10.684Z,68.20
2017-11-23T16:39:44.463Z,68.30
2017-11-23T16:42:18.434Z,68.50
2017-11-23T16:45:06.931Z,68.20
2017-11-23T16:47:51.348Z,68.10
2017-11-23T16:50:30.894Z,67.70
2017-11-23T16:53:10.270Z,68.30
2017-11-23T16:55:49.496Z,68.50
2017-11-23T16:58:26.881Z,68.50
2017-11-23T17:01:06.538Z,68.50
2017-11-23T17:03:46.086Z,68.70
2017-11-23T17:06:25.354Z,68.70
2017-11-23T17:09:04.724Z,69.00
2017-11-23T17:11:44.735Z,68.90
2017-11-23T17:17:49.033Z,69.20
2017-11-23T17:20:22.836Z,69.10
2017-11-23T17:22:56.644Z,69.30
2017-11-23T17:25:30.287Z,69.40
2017-11-23T17:28:03.843Z,69.50
2017-11-23T17:30:37.444Z,69.50
2017-11-23T17:33:11.251Z,69.70
2017-11-23T17:35:44.853Z,70.00
2017-11-23T17:38:18.334Z,69.80
2017-11-23T17:40:51.858Z,70.00
2017-11-23T17:43:25.514Z,69.80
2017-11-23T17:45:59.823Z,69.80
2017-11-23T17:48:33.508Z,69.80
2017-11-23T17:51:07.013Z,69.80
2017-11-23T17:53:40.545Z,69.60
2017-11-23T17:56:14.076Z,69.50
2017-11-23T17:58:47.535Z,69.60
2017-11-23T18:01:21.066Z,69.70
2017-11-23T18:03:54.599Z,69.70
2017-11-23T18:06:28.120Z,69.60
2017-11-23T18:09:01.584Z,69.40
2017-11-23T18:11:35.180Z,69.40
2017-11-23T18:14:08.634Z,69.30
2017-11-23T18:16:42.852Z,69.40
2017-11-23T18:19:17.123Z,69.40
2017-11-23T18:21:50.563Z,69.40
2017-11-23T18:24:24.076Z,69.50
2017-11-23T18:26:57.607Z,69.60
2017-11-23T18:29:31.872Z,69.70
2017-11-23T18:32:05.409Z,69.70
2017-11-23T18:34:39.670Z,70.00
2017-11-23T18:37:13.174Z,70.00
2017-11-23T18:39:46.823Z,70.00
2017-11-23T18:42:21.112Z,70.10
2017-11-23T18:44:55.314Z,69.90
2017-11-23T18:47:29.736Z,69.90
2017-11-23T18:50:03.964Z,70.10
2017-11-23T18:52:38.180Z,69.80
2017-11-23T18:55:11.696Z,69.80
2017-11-23T18:57:45.140Z,69.80
2017-11-23T19:00:19.490Z,69.60
2017-11-23T19:02:52.943Z,69.40
2017-11-23T19:05:26.456Z,69.50
2017-11-23T19:07:59.983Z,69.60
2017-11-23T19:10:34.299Z,69.50
2017-11-23T19:13:08.650Z,69.50
2017-11-23T19:15:42.153Z,69.40
2017-11-23T19:18:15.710Z,69.50
2017-11-23T19:20:49.228Z,69.50
2017-11-23T19:23:23.642Z,69.70
2017-11-23T19:25:57.843Z,69.70
2017-11-23T19:28:31.379Z,69.70
2017-11-23T19:31:04.840Z,69.50
2017-11-23T19:33:38.381Z,69.30
2017-11-23T19:36:11.955Z,69.50
2017-11-23T19:38:45.473Z,69.40
2017-11-23T19:41:19.004Z,69.50
2017-11-23T19:43:52.448Z,69.60
2017-11-23T19:46:26.843Z,69.60
2017-11-23T19:49:00.432Z,69.60
2017-11-23T19:51:33.938Z,70.30
2017-11-23T19:54:07.387Z,69.80
2017-11-23T19:56:40.833Z,69.90
2017-11-23T19:59:14.363Z,70.10
2017-11-23T20:01:47.808Z,70.10
2017-11-23T20:04:21.323Z,70.10
2017-11-23T20:06:54.963Z,69.90
2017-11-23T20:09:29.384Z,70.10
2017-11-23T20:12:03.593Z,70.20
2017-11-23T20:14:37.103Z,70.20
2017-11-23T20:17:11.386Z,70.30
2017-11-23T20:19:44.915Z,70.20
2017-11-23T20:22:18.475Z,70.40
2017-11-23T20:24:52.706Z,70.40
2017-11-23T20:27:27.040Z,70.40
2017-11-23T20:30:01.245Z,70.20
2017-11-23T20:32:34.774Z,70.30
2017-11-23T20:35:08.212Z,70.40
2017-11-23T20:37:41.664Z,70.40
2017-11-23T20:40:15.191Z,70.30
2017-11-23T20:42:49.450Z,70.50
2017-11-23T20:45:22.988Z,70.50
2017-11-23T20:47:57.271Z,70.60
2017-11-23T20:50:31.471Z,70.60
2017-11-23T20:53:05.018Z,70.60
2017-11-23T20:55:39.317Z,70.50
2017-11-23T20:58:13.531Z,70.90
2017-11-23T21:00:47.734Z,70.70
2017-11-23T21:03:21.268Z,70.70
2017-11-23T21:05:54.904Z,70.70
2017-11-23T21:08:28.447Z,70.70
2017-11-23T21:11:02.040Z,70.70
2017-11-23T21:13:35.552Z,70.70
2017-11-23T21:16:09.072Z,70.70
2017-11-23T21:18:42.669Z,70.60
2017-11-23T21:21:16.944Z,70.50
2017-11-23T21:23:50.470Z,70.60
2017-11-23T21:26:24.132Z,70.40
2017-11-23T21:28:57.575Z,70.60
2017-11-23T21:31:31.117Z,70.60
2017-11-23T21:34:04.803Z,70.60
2017-11-23T21:36:38.494Z,70.50
2017-11-23T21:39:12.333Z,70.50
2017-11-23T21:41:46.803Z,70.60
2017-11-23T21:44:21.402Z,70.90
2017-11-23T21:46:55.113Z,70.70
2017-11-23T21:49:28.800Z,70.70
2017-11-23T21:52:02.516Z,70.50
2017-11-23T21:54:36.221Z,70.60
2017-11-23T21:57:10.008Z,70.60
2017-11-23T21:59:43.705Z,70.70
2017-11-23T22:02:17.652Z,70.60
2017-11-23T22:04:51.232Z,70.50
2017-11-23T22:07:24.802Z,70.50
2017-11-23T22:09:58.459Z,70.70
2017-11-23T22:12:32.002Z,70.70
2017-11-23T22:15:05.520Z,70.70
2017-11-23T22:17:39.023Z,70.80
2017-11-23T22:20:12.553Z,70.80
2017-11-23T22:22:46.103Z,70.90
2017-11-23T22:25:19.757Z,71.00
2017-11-23T22:27:53.261Z,70.90
2017-11-23T22:30:27.916Z,70.90
2017-11-23T22:33:01.622Z,70.90
2017-11-23T22:35:35.597Z,71.00
2017-11-23T22:38:10.000Z,71.00
2017-11-23T22:40:43.480Z,71.00
2017-11-23T22:43:17.098Z,71.00
2017-11-23T22:45:51.303Z,71.10
2017-11-23T22:48:25.135Z,71.10
2017-11-23T22:50:58.631Z,71.30
2017-11-23T22:53:33.011Z,72.10
2017-11-23T22:56:06.766Z,71.40
2017-11-23T22:58:40.326Z,71.70
2017-11-23T23:01:14.744Z,72.30
2017-11-23T23:03:48.275Z,72.20
2017-11-23T23:06:21.771Z,72.60
2017-11-23T23:08:55.283Z,73.00
2017-11-23T23:11:28.983Z,72.90
2017-11-23T23:14:02.585Z,72.80
2017-11-23T23:16:36.175Z,72.90
2017-11-23T23:19:09.899Z,73.10
2017-11-23T23:21:43.680Z,73.20
2017-11-23T23:24:17.396Z,72.90
2017-11-23T23:26:50.896Z,72.80
2017-11-23T23:29:24.701Z,72.80
2017-11-23T23:31:58.262Z,72.90
2017-11-23T23:34:32.264Z,72.90
2017-11-23T23:37:05.915Z,72.70
2017-11-23T23:39:39.503Z,72.70
2017-11-23T23:42:13.005Z,72.60
2017-11-23T23:44:46.563Z,72.50
2017-11-23T23:47:20.216Z,72.40
2017-11-23T23:49:53.905Z,72.50
2017-11-23T23:52:27.710Z,72.60
2017-11-23T23:55:01.210Z,72.50
2017-11-23T23:57:34.732Z,72.30
